createdAt,value
2023-02-05T00:00:12.608Z,-10880.56
2023-02-05T00:03:18.952Z,-10875.66
2023-02-05T00:06:25.069Z,-10886.84
2023-02-05T00:09:32.835Z,-10891.47
2023-02-05T00:12:39.904Z,-10886.72
2023-02-05T00:15:46.243Z,-10886.44
2023-02-05T00:18:53.098Z,-10881.69
2023-02-05T00:21:59.002Z,-10881.97
2023-02-05T00:25:07.604Z,-10880.56
2023-02-05T00:28:13.621Z,-10881.69
2023-02-05T00:31:22.782Z,-10884.91
2023-02-05T00:34:29.412Z,-10886.16
2023-02-05T00:37:35.445Z,-10883.50
2023-02-05T00:40:44.791Z,-10880.97
2023-02-05T00:43:51.125Z,-10883.34
2023-02-05T00:46:57.094Z,-10877.47
2023-02-05T00:50:03.044Z,-10874.97
2023-02-05T00:53:09.409Z,-10872.03
2023-02-05T00:56:17.035Z,-10872.16
2023-02-05T00:59:23.990Z,-10877.75
2023-02-05T01:02:30.479Z,-10871.88
2023-02-05T01:05:37.975Z,-10871.03
2023-02-05T01:08:44.171Z,-10881.81
2023-02-05T01:11:51.742Z,-10872.59
2023-02-05T01:14:57.773Z,-10871.59
2023-02-05T01:18:04.172Z,-10871.75
2023-02-05T01:21:10.496Z,-10871.31
2023-02-05T01:24:16.979Z,-10870.22
2023-02-05T01:27:24.589Z,-10868.53
2023-02-05T01:30:30.831Z,-10871.59
2023-02-05T01:33:37.137Z,-10873.00
2023-02-05T01:36:43.174Z,-10867.97
2023-02-05T01:39:49.288Z,-10870.75
2023-02-05T01:42:56.981Z,-10867.00
2023-02-05T01:46:20.579Z,-10867.69
2023-02-05T01:49:31.308Z,-10868.81
2023-02-05T01:52:37.614Z,-10867.13
2023-02-05T01:55:49.445Z,-10871.19
2023-02-05T01:59:00.330Z,-10864.19
2023-02-05T02:02:07.770Z,-10869.38
2023-02-05T02:05:16.760Z,-10867.69
2023-02-05T02:08:23.432Z,-10864.34
2023-02-05T02:11:33.480Z,-10874.81
2023-02-05T02:14:42.956Z,-10867.97
2023-02-05T02:17:52.840Z,-10871.31
2023-02-05T02:21:59.755Z,-10862.22
2023-02-05T02:25:50.569Z,-10859.84
2023-02-05T02:29:02.013Z,-10860.13
2023-02-05T02:32:17.340Z,-10861.81
2023-02-05T02:35:28.926Z,-10857.63
2023-02-05T02:38:38.868Z,-10861.81
2023-02-05T02:41:52.244Z,-10860.41
2023-02-05T02:45:02.656Z,-10866.56
2023-02-05T02:48:09.334Z,-10858.44
2023-02-05T02:51:18.905Z,-10862.09
2023-02-05T02:54:27.821Z,-10864.06
2023-02-05T02:57:36.839Z,-10863.22
2023-02-05T03:00:46.664Z,-10858.59
2023-02-05T03:03:55.976Z,-10849.78
2023-02-05T03:07:09.360Z,-10851.75
2023-02-05T03:10:23.173Z,-10849.94
2023-02-05T03:13:29.548Z,-10844.19
2023-02-05T03:16:37.227Z,-10843.63
2023-02-05T03:19:43.326Z,-10857.91
2023-02-05T03:22:50.169Z,-10838.88
2023-02-05T03:25:56.633Z,-10842.66
2023-02-05T03:29:06.283Z,-10850.75
2023-02-05T03:32:24.898Z,-10846.28
2023-02-05T03:35:37.485Z,-10835.94
2023-02-05T03:39:10.943Z,-10843.91
2023-02-05T03:42:28.817Z,-10836.22
2023-02-05T03:45:47.163Z,-10838.19
2023-02-05T03:49:07.538Z,-10841.09
2023-02-05T03:52:18.805Z,-10840.00
2023-02-05T03:55:30.339Z,-10837.47
2023-02-05T03:58:39.714Z,-10834.53
2023-02-05T04:01:46.813Z,-10837.63
2023-02-05T04:04:53.937Z,-10840.28
2023-02-05T04:07:59.836Z,-10833.84
2023-02-05T04:11:07.442Z,-10828.25
2023-02-05T04:14:13.440Z,-10829.50
2023-02-05T04:17:19.313Z,-10830.22
2023-02-05T04:20:26.690Z,-10831.31
2023-02-05T04:23:32.892Z,-10832.44
2023-02-05T04:26:38.728Z,-10831.59
2023-02-05T04:29:44.936Z,-10829.50
2023-02-05T04:32:51.329Z,-10822.94
2023-02-05T04:36:01.741Z,-10826.16
2023-02-05T04:39:08.373Z,-10832.72
2023-02-05T04:42:14.399Z,-10824.34
2023-02-05T04:45:20.758Z,-10823.50
2023-02-05T04:48:27.210Z,-10832.88
2023-02-05T04:51:34.675Z,-10827.97
2023-02-05T04:54:40.863Z,-10822.66
2023-02-05T04:57:47.342Z,-10825.88
2023-02-05T05:00:53.478Z,-10824.75
2023-02-05T05:03:59.565Z,-10822.66
2023-02-05T05:07:07.060Z,-10830.47
2023-02-05T05:10:13.330Z,-10825.03
2023-02-05T05:13:19.203Z,-10823.91
2023-02-05T05:16:25.151Z,-10822.66
2023-02-05T05:19:31.257Z,-10828.81
2023-02-05T05:22:38.554Z,-10828.53
2023-02-05T05:25:45.059Z,-10831.19
2023-02-05T05:28:54.817Z,-10837.47
2023-02-05T05:32:00.980Z,-10834.81
2023-02-05T05:35:08.423Z,-10836.09
2023-02-05T05:38:16.086Z,-10836.22
2023-02-05T05:41:41.190Z,-10832.31
2023-02-05T05:44:50.234Z,-10838.88
2023-02-05T05:47:56.676Z,-10829.94
2023-02-05T05:51:02.808Z,-10827.97
2023-02-05T05:54:10.568Z,-10836.34
2023-02-05T05:57:16.710Z,-10824.63
2023-02-05T06:00:23.124Z,-10830.22
2023-02-05T06:03:29.054Z,-10824.63
2023-02-05T06:06:35.675Z,-10830.75
2023-02-05T06:09:43.124Z,-10837.06
2023-02-05T06:12:50.474Z,-10838.31
2023-02-05T06:15:56.949Z,-10841.94
2023-02-05T06:19:03.223Z,-10854.97
2023-02-05T06:22:09.324Z,-10834.41
2023-02-05T06:25:16.961Z,-10834.25
2023-02-05T06:28:23.029Z,-10838.03
2023-02-05T06:31:29.347Z,-10839.00
2023-02-05T06:34:35.781Z,-10841.94
2023-02-05T06:37:49.009Z,-10852.03
2023-02-05T06:40:56.572Z,-10841.81
2023-02-05T06:44:04.040Z,-10841.94
2023-02-05T06:47:10.190Z,-10845.03
2023-02-05T06:50:16.225Z,-10839.56
2023-02-05T06:53:22.397Z,-10843.34
2023-02-05T06:56:29.976Z,-10841.09
2023-02-05T06:59:36.519Z,-10848.38
2023-02-05T07:02:42.510Z,-10854.41
2023-02-05T07:05:48.300Z,-10857.06
2023-02-05T07:08:54.744Z,-10856.50
2023-02-05T07:12:02.217Z,-10844.31
2023-02-05T07:15:09.191Z,-10846.84
2023-02-05T07:18:15.334Z,-10856.63
2023-02-05T07:21:21.714Z,-10845.03
2023-02-05T07:24:27.924Z,-10867.84
2023-02-05T07:27:35.578Z,-10857.63
2023-02-05T07:30:41.822Z,-10856.63
2023-02-05T07:33:48.673Z,-10856.91
2023-02-05T07:36:55.106Z,-10864.47
2023-02-05T07:40:01.327Z,-10866.44
2023-02-05T07:43:08.707Z,-10863.22
2023-02-05T07:46:16.632Z,-10860.97
2023-02-05T07:49:22.703Z,-10873.00
2023-02-05T07:52:28.685Z,-10858.19
2023-02-05T07:55:36.424Z,-10859.00
2023-02-05T07:58:44.444Z,-10852.16
2023-02-05T08:01:50.835Z,-10856.34
2023-02-05T08:04:56.772Z,-10866.56
2023-02-05T08:08:03.024Z,-10873.84
2023-02-05T08:11:09.397Z,-10869.38
2023-02-05T08:14:17.019Z,-10868.53
2023-02-05T08:17:23.375Z,-10882.38
2023-02-05T08:20:29.536Z,-10868.66
2023-02-05T08:23:35.943Z,-10868.25
2023-02-05T08:26:42.456Z,-10884.06
2023-02-05T08:29:50.208Z,-10891.47
2023-02-05T08:32:56.594Z,-10885.31
2023-02-05T08:36:03.085Z,-10891.63
2023-02-05T08:39:09.303Z,-10885.59
2023-02-05T08:42:15.876Z,-10892.47
2023-02-05T08:45:23.703Z,-10886.72
2023-02-05T08:48:29.714Z,-10882.09
2023-02-05T08:51:36.880Z,-10899.03
2023-02-05T08:54:43.097Z,-10895.97
2023-02-05T08:57:49.277Z,-10907.84
2023-02-05T09:01:02.720Z,-10916.69
2023-02-05T09:04:09.569Z,-10913.59
2023-02-05T09:07:15.948Z,-10922.00
2023-02-05T09:10:22.201Z,-10906.16
2023-02-05T09:13:28.776Z,-10917.09
2023-02-05T09:16:36.854Z,-10927.31
2023-02-05T09:19:43.214Z,-10931.94
2023-02-05T09:22:50.502Z,-10928.16
2023-02-05T09:25:59.430Z,-10941.19
2023-02-05T09:29:05.821Z,-10952.81
2023-02-05T09:32:13.643Z,-10965.56
2023-02-05T09:35:20.061Z,-10969.34
2023-02-05T09:38:26.124Z,-10974.94
2023-02-05T09:41:42.708Z,-10980.56
2023-02-05T09:45:04.668Z,-10977.63
2023-02-05T09:48:46.754Z,-10983.34
2023-02-05T09:51:58.127Z,-10978.19
2023-02-05T09:55:16.030Z,-10984.75
2023-02-05T09:58:27.214Z,-10989.25
2023-02-05T10:01:44.698Z,-10997.25
2023-02-05T10:04:54.988Z,-10999.19
2023-02-05T10:08:13.069Z,-10955.88
2023-02-05T10:11:28.362Z,-10983.78
2023-02-05T10:14:49.185Z,-10974.38
2023-02-05T10:18:07.865Z,-10963.88
2023-02-05T10:21:30.330Z,-10987.44
2023-02-05T10:25:05.326Z,-10982.25
2023-02-05T10:28:33.626Z,-10978.31
2023-02-05T10:31:43.373Z,-10987.97
2023-02-05T10:34:57.125Z,-10990.50
2023-02-05T10:38:12.983Z,-10993.59
2023-02-05T10:41:26.157Z,-10989.81
2023-02-05T10:44:36.094Z,-10972.00
2023-02-05T10:47:58.739Z,-10986.72
2023-02-05T10:51:07.658Z,-11000.31
2023-02-05T10:54:22.447Z,-10981.69
2023-02-05T10:57:35.012Z,-10987.00
2023-02-05T11:00:41.743Z,-10989.53
2023-02-05T11:03:55.843Z,-10972.84
2023-02-05T11:07:06.470Z,-10991.78
2023-02-05T11:10:19.873Z,-10969.06
2023-02-05T11:13:28.146Z,-10990.38
2023-02-05T11:16:40.545Z,-10983.06
2023-02-05T11:19:55.284Z,-10997.09
2023-02-05T11:23:16.684Z,-10982.78
2023-02-05T11:26:25.995Z,-10981.97
2023-02-05T11:29:32.303Z,-11005.66
2023-02-05T11:32:39.741Z,-10990.50
2023-02-05T11:35:53.615Z,-10974.25
2023-02-05T11:38:59.984Z,-10987.56
2023-02-05T11:42:18.930Z,-10989.66
2023-02-05T11:45:27.126Z,-10995.00
2023-02-05T11:48:39.018Z,-11000.88
2023-02-05T11:51:48.369Z,-10998.91
2023-02-05T11:54:55.225Z,-10995.56
2023-02-05T11:58:05.130Z,-10993.03
2023-02-05T12:01:24.083Z,-10993.44
2023-02-05T12:04:48.451Z,-10962.91
2023-02-05T12:08:00.242Z,-10952.09
2023-02-05T12:11:24.391Z,-10974.38
2023-02-05T12:14:41.575Z,-10983.06
2023-02-05T12:17:55.840Z,-10960.94
2023-02-05T12:21:14.358Z,-10974.94
2023-02-05T12:24:57.541Z,-10974.25
2023-02-05T12:28:26.177Z,-10979.44
2023-02-05T12:31:48.268Z,-10979.28
2023-02-05T12:35:07.716Z,-10964.59
2023-02-05T12:38:32.155Z,-10993.19
2023-02-05T12:41:47.229Z,-10980.28
2023-02-05T12:45:16.919Z,-10987.69
2023-02-05T12:48:47.177Z,-10987.97
2023-02-05T12:52:15.691Z,-10995.56
2023-02-05T12:55:38.061Z,-10994.56
2023-02-05T12:58:48.291Z,-10975.78
2023-02-05T13:01:59.362Z,-10979.44
2023-02-05T13:05:17.244Z,-10972.56
2023-02-05T13:08:37.377Z,-10974.94
2023-02-05T13:11:52.574Z,-10985.47
2023-02-05T13:15:14.549Z,-10973.41
2023-02-05T13:18:27.745Z,-10980.56
2023-02-05T13:21:53.178Z,-10984.75
2023-02-05T13:25:27.344Z,-10980.00
2023-02-05T13:28:43.439Z,-10966.97
2023-02-05T13:31:53.383Z,-10971.72
2023-02-05T13:35:00.332Z,-10975.78
2023-02-05T13:38:32.431Z,-10969.47
2023-02-05T13:42:06.619Z,-10966.13
2023-02-05T13:45:35.845Z,-10965.41
2023-02-05T13:49:06.796Z,-10971.59
2023-02-05T13:52:48.225Z,-10953.38
2023-02-05T13:56:36.628Z,-10968.09
2023-02-05T13:59:51.654Z,-10953.09
2023-02-05T14:03:05.729Z,-10965.84
2023-02-05T14:06:24.257Z,-10964.72
2023-02-05T14:09:39.740Z,-10961.50
2023-02-05T14:12:47.636Z,-10953.38
2023-02-05T14:15:57.449Z,-10953.09
2023-02-05T14:19:16.730Z,-10949.59
2023-02-05T14:22:38.413Z,-10945.66
2023-02-05T14:26:11.285Z,-10950.16
2023-02-05T14:29:42.284Z,-10948.06
2023-02-05T14:32:59.176Z,-10945.53
2023-02-05T14:36:34.488Z,-10936.56
2023-02-05T14:39:40.950Z,-10949.88
2023-02-05T14:42:47.585Z,-10938.38
2023-02-05T14:45:56.072Z,-10940.63
2023-02-05T14:49:04.792Z,-10929.41
2023-02-05T14:52:27.200Z,-10935.44
2023-02-05T14:55:40.378Z,-10932.22
2023-02-05T14:58:47.536Z,-10929.56
2023-02-05T15:01:55.506Z,-10932.50
2023-02-05T15:05:05.305Z,-10933.75
2023-02-05T15:08:17.744Z,-10926.06
2023-02-05T15:11:35.455Z,-10931.09
2023-02-05T15:14:51.620Z,-10931.38
2023-02-05T15:18:05.917Z,-10925.34
2023-02-05T15:21:18.029Z,-10923.41
2023-02-05T15:24:28.016Z,-10927.31
2023-02-05T15:27:42.004Z,-10912.47
2023-02-05T15:30:55.896Z,-10918.06
2023-02-05T15:34:23.004Z,-10918.34
2023-02-05T15:37:32.544Z,-10921.44
2023-02-05T15:40:43.099Z,-10917.66
2023-02-05T15:44:01.039Z,-10916.41
2023-02-05T15:47:15.441Z,-10917.53
2023-02-05T15:50:23.434Z,-10903.38
2023-02-05T15:53:35.473Z,-10916.53
2023-02-05T15:56:43.740Z,-10915.97
2023-02-05T15:59:51.172Z,-10902.66
2023-02-05T16:02:59.181Z,-10914.16
2023-02-05T16:06:07.990Z,-10913.72
2023-02-05T16:09:18.923Z,-10914.84
2023-02-05T16:12:26.239Z,-10901.28
2023-02-05T16:15:38.227Z,-10904.63
2023-02-05T16:18:51.689Z,-10901.00
2023-02-05T16:22:04.454Z,-10911.50
2023-02-05T16:25:30.948Z,-10916.53
2023-02-05T16:28:43.092Z,-10909.41
2023-02-05T16:31:50.438Z,-10910.78
2023-02-05T16:34:56.946Z,-10905.34
2023-02-05T16:38:09.001Z,-10907.28
2023-02-05T16:41:25.838Z,-10904.06
2023-02-05T16:44:37.886Z,-10899.59
2023-02-05T16:47:44.499Z,-10900.44
2023-02-05T16:50:51.506Z,-10900.84
2023-02-05T16:54:00.702Z,-10902.66
2023-02-05T16:57:12.911Z,-10890.06
2023-02-05T17:00:23.688Z,-10896.22
2023-02-05T17:03:35.489Z,-10889.22
2023-02-05T17:06:42.116Z,-10894.00
2023-02-05T17:09:51.272Z,-10885.75
2023-02-05T17:13:01.120Z,-10886.16
2023-02-05T17:16:28.942Z,-10886.72
2023-02-05T17:19:35.606Z,-10892.19
2023-02-05T17:23:03.180Z,-10877.19
2023-02-05T17:26:11.574Z,-10876.63
2023-02-05T17:29:17.937Z,-10880.56
2023-02-05T17:32:24.463Z,-10876.09
2023-02-05T17:35:32.640Z,-10883.63
2023-02-05T17:38:38.932Z,-10877.34
2023-02-05T17:42:03.815Z,-10874.41
2023-02-05T17:45:18.230Z,-10874.69
2023-02-05T17:48:24.317Z,-10874.13
2023-02-05T17:51:31.076Z,-10880.56
2023-02-05T17:54:37.302Z,-10864.59
2023-02-05T17:57:46.135Z,-10858.88
2023-02-05T18:00:52.679Z,-10872.72
2023-02-05T18:03:59.248Z,-10871.47
2023-02-05T18:07:05.832Z,-10868.94
2023-02-05T18:10:14.876Z,-10866.44
2023-02-05T18:13:23.181Z,-10865.03
2023-02-05T18:16:29.714Z,-10850.06
2023-02-05T18:19:36.292Z,-10870.06
2023-02-05T18:22:42.918Z,-10873.84
2023-02-05T18:25:49.278Z,-10868.53
2023-02-05T18:28:57.033Z,-10858.72
2023-02-05T18:32:03.949Z,-10863.22
2023-02-05T18:35:14.582Z,-10865.88
2023-02-05T18:38:22.840Z,-10863.78
2023-02-05T18:41:29.334Z,-10861.53
2023-02-05T18:44:37.349Z,-10863.22
2023-02-05T18:47:43.755Z,-10871.59
2023-02-05T18:50:50.158Z,-10864.19
2023-02-05T18:53:56.583Z,-10852.59
2023-02-05T18:57:02.566Z,-10863.91
2023-02-05T19:00:11.652Z,-10853.69
2023-02-05T19:03:17.696Z,-10862.94
2023-02-05T19:06:24.240Z,-10858.72
2023-02-05T19:09:31.231Z,-10847.53
2023-02-05T19:12:37.517Z,-10846.00
2023-02-05T19:15:45.307Z,-10859.00
2023-02-05T19:18:51.525Z,-10860.97
2023-02-05T19:22:00.173Z,-10866.28
2023-02-05T19:25:06.689Z,-10867.41
2023-02-05T19:28:12.885Z,-10866.28
2023-02-05T19:31:20.440Z,-10847.13
2023-02-05T19:34:27.900Z,-10854.81
2023-02-05T19:37:33.828Z,-10843.78
2023-02-05T19:40:40.061Z,-10847.53
2023-02-05T19:43:51.463Z,-10850.91
2023-02-05T19:46:58.908Z,-10844.88
2023-02-05T19:50:04.983Z,-10839.28
2023-02-05T19:53:11.436Z,-10843.06
2023-02-05T19:56:20.084Z,-10856.78
2023-02-05T19:59:26.499Z,-10855.38
2023-02-05T20:02:35.478Z,-10857.06
2023-02-05T20:05:41.578Z,-10854.53
2023-02-05T20:08:48.292Z,-10859.28
2023-02-05T20:11:55.505Z,-10835.53
2023-02-05T20:15:01.408Z,-10833.56
2023-02-05T20:18:09.231Z,-10851.19
2023-02-05T20:21:19.316Z,-10840.69
2023-02-05T20:24:25.394Z,-10845.31
2023-02-05T20:27:31.320Z,-10847.00
2023-02-05T20:30:55.115Z,-10845.59
2023-02-05T20:34:03.006Z,-10848.25
2023-02-05T20:37:09.736Z,-10847.41
2023-02-05T20:40:15.770Z,-10848.38
2023-02-05T20:43:21.883Z,-10843.91
2023-02-05T20:46:28.621Z,-10847.81
2023-02-05T20:49:37.292Z,-10831.88
2023-02-05T20:52:43.431Z,-10837.47
2023-02-05T20:55:51.280Z,-10833.00
2023-02-05T20:59:00.470Z,-10837.75
2023-02-05T21:02:07.027Z,-10840.13
2023-02-05T21:05:14.615Z,-10831.88
2023-02-05T21:08:20.768Z,-10826.56
2023-02-05T21:11:31.183Z,-10818.88
2023-02-05T21:14:37.415Z,-10833.41
2023-02-05T21:17:44.083Z,-10830.47
2023-02-05T21:20:52.323Z,-10836.91
2023-02-05T21:24:00.336Z,-10836.63
2023-02-05T21:27:07.596Z,-10833.84
2023-02-05T21:30:14.929Z,-10821.81
2023-02-05T21:33:21.559Z,-10830.22
2023-02-05T21:36:29.590Z,-10838.03
2023-02-05T21:39:37.391Z,-10833.69
2023-02-05T21:42:43.665Z,-10832.16
2023-02-05T21:45:50.086Z,-10831.59
2023-02-05T21:48:57.649Z,-10834.53
2023-02-05T21:52:05.834Z,-10822.66
2023-02-05T21:55:12.184Z,-10820.41
2023-02-05T21:58:18.436Z,-10827.28
2023-02-05T22:01:26.620Z,-10825.44
2023-02-05T22:04:32.841Z,-10822.81
2023-02-05T22:07:40.533Z,-10817.75
2023-02-05T22:10:46.864Z,-10810.50
2023-02-05T22:13:55.196Z,-10820.16
2023-02-05T22:17:01.794Z,-10820.00
2023-02-05T22:20:08.593Z,-10819.59
2023-02-05T22:23:16.376Z,-10821.25
2023-02-05T22:26:24.578Z,-10803.22
2023-02-05T22:29:31.140Z,-10808.53
2023-02-05T22:32:37.414Z,-10822.25
2023-02-05T22:35:43.669Z,-10813.16
2023-02-05T22:38:52.203Z,-10807.00
2023-02-05T22:41:58.580Z,-10806.59
2023-02-05T22:45:05.029Z,-10814.81
2023-02-05T22:48:11.327Z,-10814.28
2023-02-05T22:51:21.056Z,-10800.28
2023-02-05T22:54:28.730Z,-10810.78
2023-02-05T22:57:34.876Z,-10805.31
2023-02-05T23:00:41.046Z,-10806.31
2023-02-05T23:03:49.426Z,-10803.22
2023-02-05T23:06:55.904Z,-10802.81
2023-02-05T23:10:03.644Z,-10801.41
2023-02-05T23:13:10.075Z,-10806.72
2023-02-05T23:16:18.531Z,-10807.56
2023-02-05T23:19:24.978Z,-10799.72
2023-02-05T23:22:32.573Z,-10793.31
2023-02-05T23:25:40.713Z,-10799.47
2023-02-05T23:28:46.866Z,-10800.28
2023-02-05T23:31:52.978Z,-10801.97
2023-02-05T23:34:59.610Z,-10796.66
2023-02-05T23:38:06.076Z,-10793.03
2023-02-05T23:41:14.220Z,-10798.06
2023-02-05T23:44:21.376Z,-10788.13
2023-02-05T23:47:27.638Z,-10787.72
2023-02-05T23:50:33.794Z,-10782.13
2023-02-05T23:53:39.837Z,-10778.06
2023-02-05T23:56:47.769Z,-10788.00
2023-02-05T23:59:54.208Z,-10771.25
